Time;durP1;ratioP1;P1;durP2;ratioP2;P2;SDS_P1;SDS_P2;PMS_P1;PMS_P2;Temp;Humidity;BMP_temperature;BMP_pressure;BME280_temperature;BME280_humidity;BME280_pressure;Samples;Min_cycle;Max_cycle;Signal;HPM_P1;HPM_P2
2024/03/25 00:01:14;;;;;;;14.18;3.10;;;5.00;99.90;;;;;;5015238;28;20056;-72
2024/03/25 00:03:39;;;;;;;9.07;2.70;;;5.00;99.90;;;;;;5014409;28;20426;-71
2024/03/25 00:06:06;;;;;;;16.00;2.75;;;5.00;99.90;;;;;;5013349;28;20018;-72
2024/03/25 00:08:32;;;;;;;7.78;2.53;;;5.00;99.90;;;;;;5014459;28;20030;-72
2024/03/25 00:10:57;;;;;;;12.73;2.70;;;5.10;99.90;;;;;;5014264;28;20033;-72
2024/03/25 00:13:23;;;;;;;14.80;2.88;;;5.00;99.90;;;;;;5014353;28;20033;-72
2024/03/25 00:15:49;;;;;;;14.88;2.70;;;5.10;99.90;;;;;;5014123;28;20688;-72
2024/03/25 00:18:15;;;;;;;8.32;2.45;;;5.00;99.90;;;;;;5012635;28;20022;-72
2024/03/25 00:20:41;;;;;;;14.13;2.60;;;5.00;99.90;;;;;;5014354;28;20018;-74
2024/03/25 00:23:07;;;;;;;10.07;2.67;;;5.10;99.90;;;;;;5013719;28;20022;-73
2024/03/25 00:25:32;;;;;;;10.77;2.40;;;5.00;99.90;;;;;;5014062;28;20027;-72
2024/03/25 00:27:58;;;;;;;13.10;2.95;;;5.00;99.90;;;;;;5014734;28;20034;-72
2024/03/25 00:30:24;;;;;;;12.60;2.83;;;5.00;99.90;;;;;;5014427;28;20026;-73
2024/03/25 00:32:49;;;;;;;10.93;3.10;;;5.00;99.90;;;;;;5012383;28;20113;-71
2024/03/25 00:35:15;;;;;;;7.63;2.50;;;5.00;99.90;;;;;;5014138;28;20029;-72
2024/03/25 00:37:41;;;;;;;11.13;2.45;;;4.90;99.90;;;;;;5014381;28;20029;-73
2024/03/25 00:40:07;;;;;;;13.32;2.95;;;4.90;99.90;;;;;;5013819;28;20030;-73
2024/03/25 00:42:33;;;;;;;14.38;2.70;;;5.00;99.90;;;;;;5013939;28;20034;-73
2024/03/25 00:44:58;;;;;;;9.95;2.72;;;4.90;99.90;;;;;;5013768;28;20029;-73
2024/03/25 00:47:24;;;;;;;11.57;2.42;;;4.90;99.90;;;;;;5013849;28;20041;-73
2024/03/25 00:49:49;;;;;;;11.02;2.58;;;4.90;99.90;;;;;;5014121;28;20030;-73
2024/03/25 00:52:15;;;;;;;13.10;2.47;;;4.90;99.90;;;;;;5013465;28;20021;-72
2024/03/25 00:54:41;;;;;;;10.75;2.20;;;4.90;99.90;;;;;;5013883;28;20018;-73
2024/03/25 00:57:07;;;;;;;9.85;2.22;;;4.80;99.90;;;;;;5012525;28;20045;-73
2024/03/25 00:59:34;;;;;;;8.75;2.30;;;4.80;99.90;;;;;;5011550;28;20022;-73
2024/03/25 01:01:59;;;;;;;6.82;2.30;;;4.90;99.90;;;;;;5012696;28;20049;-74
2024/03/25 01:04:25;;;;;;;11.82;2.92;;;4.90;99.90;;;;;;5033166;28;20084;-74
2024/03/25 01:06:50;;;;;;;8.60;3.10;;;4.80;99.90;;;;;;5013888;28;20105;-73
2024/03/25 01:09:16;;;;;;;11.38;2.45;;;4.80;99.90;;;;;;5014070;28;20030;-73
2024/03/25 01:11:42;;;;;;;9.00;2.20;;;4.80;99.90;;;;;;5015749;28;20460;-74
2024/03/25 01:14:07;;;;;;;13.27;2.50;;;4.90;99.90;;;;;;5013754;28;20019;-72
2024/03/25 01:16:33;;;;;;;5.68;2.05;;;4.90;99.90;;;;;;5012513;28;20026;-74
2024/03/25 01:18:59;;;;;;;10.60;2.50;;;4.90;99.90;;;;;;5013502;28;20518;-71
2024/03/25 01:21:25;;;;;;;9.52;2.60;;;4.90;99.90;;;;;;5012832;28;20037;-73
2024/03/25 01:23:50;;;;;;;10.25;1.95;;;4.90;99.90;;;;;;5013208;28;20105;-71
2024/03/25 01:26:16;;;;;;;6.18;2.00;;;4.90;99.90;;;;;;5013260;28;20033;-72
2024/03/25 01:28:42;;;;;;;8.52;1.90;;;4.90;99.90;;;;;;5012681;28;20039;-72
2024/03/25 01:31:09;;;;;;;7.47;1.80;;;4.90;99.90;;;;;;5011843;28;21466;-72
2024/03/25 01:33:34;;;;;;;10.43;2.35;;;4.90;99.90;;;;;;5012385;28;20028;-70
2024/03/25 01:36:00;;;;;;;7.28;1.85;;;4.90;99.90;;;;;;5011706;28;20023;-72
2024/03/25 01:38:26;;;;;;;8.38;2.00;;;4.90;99.90;;;;;;5013096;28;20058;-73
2024/03/25 01:40:51;;;;;;;6.60;2.03;;;4.90;99.90;;;;;;5012328;28;20026;-72
2024/03/25 01:43:17;;;;;;;9.07;2.10;;;4.80;99.90;;;;;;5012454;28;20128;-72
2024/03/25 01:45:44;;;;;;;11.50;2.15;;;4.80;99.90;;;;;;5013206;28;20026;-71
2024/03/25 01:48:12;;;;;;;8.48;2.60;;;4.80;99.90;;;;;;5012549;28;20022;-72
2024/03/25 01:50:41;;;;;;;13.57;2.55;;;4.80;99.90;;;;;;5011085;28;20030;-70
2024/03/25 01:53:07;;;;;;;14.65;2.90;;;4.70;99.90;;;;;;5011527;28;20022;-72
2024/03/25 01:55:35;;;;;;;9.13;2.08;;;4.80;99.90;;;;;;5012276;28;20126;-72
2024/03/25 01:58:02;;;;;;;9.75;3.00;;;4.70;99.90;;;;;;5011921;28;20029;-73
2024/03/25 02:00:28;;;;;;;8.63;2.60;;;4.70;99.90;;;;;;5012045;28;20029;-74
2024/03/25 02:02:54;;;;;;;9.30;2.75;;;4.70;99.90;;;;;;5011462;28;20062;-72
2024/03/25 02:05:20;;;;;;;8.43;2.40;;;4.60;99.90;;;;;;5012559;28;20041;-72
2024/03/25 02:07:46;;;;;;;9.73;3.00;;;4.60;99.90;;;;;;5018766;28;20022;-71
2024/03/25 02:10:15;;;;;;;9.93;2.50;;;4.60;99.90;;;;;;5012265;28;20085;-73
2024/03/25 02:12:45;;;;;;;7.82;2.40;;;4.50;99.90;;;;;;5011808;28;20082;-72
2024/03/25 02:15:13;;;;;;;9.25;2.55;;;4.50;99.90;;;;;;5012975;28;20100;-72
2024/03/25 02:17:38;;;;;;;12.05;2.80;;;4.50;99.90;;;;;;5010628;28;20031;-72
2024/03/25 02:20:05;;;;;;;9.27;2.38;;;4.40;99.90;;;;;;5012279;28;20034;-72
2024/03/25 02:22:32;;;;;;;8.85;2.60;;;4.40;99.90;;;;;;5011583;28;20053;-73
2024/03/25 02:24:59;;;;;;;9.02;2.72;;;4.40;99.90;;;;;;5012693;28;20125;-72
2024/03/25 02:27:28;;;;;;;16.35;2.70;;;4.40;99.90;;;;;;5012712;28;20064;-73
2024/03/25 02:29:54;;;;;;;11.93;2.90;;;4.40;99.90;;;;;;5011826;28;20027;-71
2024/03/25 02:32:19;;;;;;;14.02;3.00;;;4.40;99.90;;;;;;5012336;28;20022;-73
2024/03/25 02:34:51;;;;;;;10.32;3.00;;;4.50;99.90;;;;;;5011950;28;20022;-72
2024/03/25 02:37:17;;;;;;;16.80;3.15;;;4.50;99.90;;;;;;5010610;28;20034;-72
2024/03/25 02:39:43;;;;;;;10.32;3.10;;;4.50;99.90;;;;;;5012126;28;20108;-72
2024/03/25 02:42:09;;;;;;;15.93;3.15;;;4.60;99.90;;;;;;5012192;28;20041;-72
2024/03/25 02:44:34;;;;;;;12.48;2.40;;;4.50;99.90;;;;;;5011612;28;20078;-72
2024/03/25 02:47:01;;;;;;;11.48;2.83;;;4.60;99.90;;;;;;5010764;28;20541;-73
2024/03/25 02:49:27;;;;;;;15.95;3.30;;;4.60;99.90;;;;;;5011905;28;20036;-73
2024/03/25 02:55:15;;;;;;;12.95;2.80;;;4.60;99.90;;;;;;5011120;28;20145;-72
2024/03/25 02:57:40;;;;;;;9.48;2.90;;;4.70;99.90;;;;;;5011637;28;20471;-73
2024/03/25 03:00:08;;;;;;;8.15;3.13;;;4.80;99.90;;;;;;5011981;28;20026;-72
2024/03/25 03:02:34;;;;;;;9.88;2.92;;;4.70;99.90;;;;;;5010308;28;20058;-71
2024/03/25 03:05:00;;;;;;;11.82;3.30;;;4.70;99.90;;;;;;5011439;28;20022;-72
2024/03/25 03:07:26;;;;;;;11.70;2.92;;;4.70;99.90;;;;;;5011976;28;20022;-72
2024/03/25 03:09:51;;;;;;;10.82;3.10;;;4.80;99.90;;;;;;5010621;28;20026;-73
2024/03/25 03:12:17;;;;;;;8.82;3.05;;;4.80;99.90;;;;;;5011244;28;20066;-73
2024/03/25 03:14:42;;;;;;;17.23;3.60;;;4.80;99.90;;;;;;5010609;28;20514;-72
2024/03/25 03:17:08;;;;;;;13.88;3.25;;;4.70;99.90;;;;;;5011973;28;20026;-74
2024/03/25 03:19:34;;;;;;;9.85;3.45;;;4.70;99.90;;;;;;5011233;28;20030;-72
2024/03/25 03:21:59;;;;;;;11.88;3.13;;;4.80;99.90;;;;;;5011768;28;20073;-72
2024/03/25 03:24:25;;;;;;;14.57;3.08;;;4.70;99.90;;;;;;5013231;28;20100;-72
2024/03/25 03:26:50;;;;;;;13.75;3.53;;;4.90;99.90;;;;;;5014822;28;20018;-74
2024/03/25 03:29:16;;;;;;;12.90;3.92;;;4.80;99.90;;;;;;5015407;28;20107;-71
2024/03/25 03:31:41;;;;;;;10.63;3.10;;;4.70;99.90;;;;;;5014015;28;20026;-72
2024/03/25 03:34:07;;;;;;;12.90;3.50;;;4.70;99.90;;;;;;5015068;28;20076;-71
2024/03/25 03:36:33;;;;;;;9.75;3.33;;;4.80;99.90;;;;;;5015461;28;20085;-72
2024/03/25 03:38:58;;;;;;;11.07;3.78;;;4.80;99.90;;;;;;5015663;28;20345;-71
2024/03/25 03:41:24;;;;;;;15.32;3.90;;;4.80;99.90;;;;;;5014861;28;20049;-72
2024/03/25 03:43:49;;;;;;;18.63;3.80;;;4.80;99.90;;;;;;5013750;28;20022;-74
2024/03/25 03:46:15;;;;;;;16.65;3.70;;;4.80;99.90;;;;;;5014945;28;20541;-71
2024/03/25 03:48:40;;;;;;;15.43;4.07;;;4.80;99.90;;;;;;5015104;28;20018;-73
2024/03/25 03:51:06;;;;;;;9.93;3.70;;;4.80;99.90;;;;;;5015283;28;20018;-74
2024/03/25 03:53:33;;;;;;;14.27;4.30;;;4.90;99.90;;;;;;5014444;28;20045;-72
2024/03/25 03:56:01;;;;;;;20.35;3.72;;;4.80;99.90;;;;;;5013470;28;20086;-72
2024/03/25 03:58:28;;;;;;;14.40;4.13;;;4.80;99.90;;;;;;5013667;28;20019;-72
2024/03/25 04:00:54;;;;;;;20.38;4.03;;;4.80;99.90;;;;;;5014460;28;20053;-72
2024/03/25 04:03:19;;;;;;;15.57;3.67;;;4.80;99.90;;;;;;5015231;28;20038;-72
2024/03/25 04:05:45;;;;;;;14.57;4.35;;;4.70;99.90;;;;;;5014805;28;20018;-72
2024/03/25 04:08:11;;;;;;;13.00;3.92;;;4.70;99.90;;;;;;5014530;28;20026;-71
2024/03/25 04:10:37;;;;;;;11.60;3.83;;;4.70;99.90;;;;;;5014762;28;20510;-73
2024/03/25 04:13:04;;;;;;;16.48;3.75;;;4.60;99.90;;;;;;5014544;28;20054;-73
2024/03/25 04:15:32;;;;;;;15.13;3.53;;;4.60;99.90;;;;;;5014251;28;20070;-74
2024/03/25 04:17:58;;;;;;;23.02;4.07;;;4.60;99.90;;;;;;5014923;28;20025;-72
2024/03/25 04:20:24;;;;;;;22.35;4.45;;;4.60;99.90;;;;;;5014252;28;20038;-70
2024/03/25 04:22:49;;;;;;;19.00;4.53;;;4.50;99.90;;;;;;5012667;28;20042;-73
2024/03/25 04:25:15;;;;;;;22.48;4.45;;;4.50;99.90;;;;;;5014236;28;20038;-73
2024/03/25 04:27:44;;;;;;;18.15;4.30;;;4.60;99.90;;;;;;5014443;28;20022;-73
2024/03/25 04:30:11;;;;;;;18.10;4.00;;;4.60;99.90;;;;;;5013848;28;20019;-74
2024/03/25 04:32:37;;;;;;;22.00;4.25;;;4.50;99.90;;;;;;5013047;28;20026;-71
2024/03/25 04:35:03;;;;;;;25.58;4.40;;;4.60;99.90;;;;;;5011768;28;20018;-72
2024/03/25 04:37:29;;;;;;;16.90;4.45;;;4.60;99.90;;;;;;5014125;28;20044;-72
2024/03/25 04:39:55;;;;;;;15.18;4.25;;;4.60;99.90;;;;;;5014644;28;20030;-73
2024/03/25 04:42:24;;;;;;;21.35;3.88;;;4.60;99.90;;;;;;5013443;28;20514;-72
2024/03/25 04:44:50;;;;;;;17.27;4.68;;;4.60;99.90;;;;;;5014269;28;20025;-74
2024/03/25 04:47:16;;;;;;;28.45;5.18;;;4.50;99.90;;;;;;5013962;28;20426;-73
2024/03/25 04:49:42;;;;;;;25.90;4.53;;;4.50;99.90;;;;;;5014001;28;20053;-72
2024/03/25 04:52:07;;;;;;;22.52;5.00;;;4.50;99.90;;;;;;5012746;28;20040;-71
2024/03/25 04:54:33;;;;;;;24.65;4.95;;;4.50;99.90;;;;;;5013446;28;20026;-72
2024/03/25 04:56:58;;;;;;;19.35;4.72;;;4.60;99.90;;;;;;5012762;28;20080;-74
2024/03/25 04:59:24;;;;;;;20.33;3.72;;;4.40;99.90;;;;;;5015102;28;20092;-73
2024/03/25 05:01:50;;;;;;;18.17;3.85;;;4.40;99.90;;;;;;5014958;28;21421;-73
2024/03/25 05:04:15;;;;;;;13.98;4.32;;;4.40;99.90;;;;;;5015028;28;20044;-72
2024/03/25 05:06:41;;;;;;;22.67;3.90;;;4.60;99.90;;;;;;5034389;28;20033;-75
2024/03/25 05:09:07;;;;;;;13.07;3.70;;;4.40;99.90;;;;;;5013480;28;20030;-73
2024/03/25 05:11:33;;;;;;;24.33;4.47;;;4.40;99.90;;;;;;5013676;28;20064;-71
2024/03/25 05:13:58;;;;;;;21.38;3.97;;;4.40;99.90;;;;;;5012674;28;20565;-71
2024/03/25 05:16:24;;;;;;;15.10;3.75;;;4.50;99.90;;;;;;5012000;28;20037;-73
2024/03/25 05:18:50;;;;;;;19.70;4.40;;;4.50;99.90;;;;;;5011400;28;20472;-72
2024/03/25 05:21:15;;;;;;;15.68;4.05;;;4.50;99.90;;;;;;5013276;28;20053;-73
2024/03/25 05:23:42;;;;;;;17.70;3.53;;;4.50;99.90;;;;;;5012728;28;20029;-74
2024/03/25 05:26:07;;;;;;;25.88;4.00;;;4.50;99.90;;;;;;5013490;28;20022;-71
2024/03/25 05:28:33;;;;;;;16.17;3.97;;;4.60;99.90;;;;;;5013421;28;20110;-71
2024/03/25 05:31:06;;;;;;;14.02;4.57;;;4.60;99.90;;;;;;5011989;28;20038;-73
2024/03/25 05:33:31;;;;;;;19.35;4.72;;;4.50;99.90;;;;;;5011317;28;20026;-70
2024/03/25 05:35:58;;;;;;;18.75;4.53;;;4.50;99.90;;;;;;5013187;28;20053;-71
2024/03/25 05:38:24;;;;;;;29.50;4.70;;;4.60;99.90;;;;;;5012773;28;20065;-72
2024/03/25 05:40:49;;;;;;;22.30;5.05;;;4.60;99.90;;;;;;5012711;28;20037;-72
2024/03/25 05:43:15;;;;;;;26.10;4.80;;;4.60;99.90;;;;;;5013652;28;20030;-73
2024/03/25 05:45:49;;;;;;;24.92;4.63;;;4.60;99.90;;;;;;5012010;28;20491;-73
2024/03/25 05:48:15;;;;;;;23.80;4.57;;;4.60;99.90;;;;;;5013013;28;20038;-71
2024/03/25 05:50:40;;;;;;;23.45;4.68;;;4.60;99.90;;;;;;5011838;28;20076;-73
2024/03/25 05:53:06;;;;;;;22.13;4.10;;;4.70;99.90;;;;;;5012754;28;20093;-71
2024/03/25 05:55:31;;;;;;;23.25;4.10;;;4.70;99.90;;;;;;5013076;28;20064;-71
2024/03/25 05:57:57;;;;;;;16.90;4.45;;;4.70;99.90;;;;;;5012997;28;20025;-71
2024/03/25 06:00:24;;;;;;;23.67;4.50;;;4.80;99.90;;;;;;5013064;28;20028;-71
2024/03/25 06:02:50;;;;;;;20.52;3.92;;;4.70;99.90;;;;;;5012287;28;20041;-71
2024/03/25 06:05:15;;;;;;;18.95;4.35;;;4.80;99.90;;;;;;5011954;28;20029;-74
2024/03/25 06:07:41;;;;;;;18.58;4.15;;;4.80;99.90;;;;;;5011100;28;20041;-71
2024/03/25 06:10:06;;;;;;;16.50;3.90;;;4.90;99.90;;;;;;5010310;28;20412;-71
2024/03/25 06:12:32;;;;;;;20.45;4.05;;;4.90;99.90;;;;;;5013908;28;20037;-72
2024/03/25 06:14:57;;;;;;;20.25;4.22;;;5.00;99.90;;;;;;5034734;28;20034;-73
2024/03/25 06:17:23;;;;;;;20.50;4.22;;;5.10;99.90;;;;;;5012553;28;20219;-71
2024/03/25 06:19:50;;;;;;;24.35;4.35;;;5.00;99.90;;;;;;5011588;28;20050;-72
2024/03/25 06:22:15;;;;;;;19.05;3.47;;;5.10;99.90;;;;;;5010450;28;20064;-71
2024/03/25 06:24:42;;;;;;;18.25;3.50;;;5.10;99.90;;;;;;5012178;28;20439;-71
2024/03/25 06:27:07;;;;;;;17.10;3.92;;;5.10;99.90;;;;;;5009773;28;20026;-74
2024/03/25 06:29:35;;;;;;;21.75;3.85;;;5.10;99.90;;;;;;5011822;28;20416;-73
2024/03/25 06:34:46;;;;;;;18.27;3.78;;;5.10;99.90;;;;;;5012614;28;20069;-71
2024/03/25 06:37:12;;;;;;;20.10;3.90;;;5.20;99.90;;;;;;5011560;28;20030;-74
2024/03/25 06:39:37;;;;;;;18.58;3.67;;;5.20;99.90;;;;;;5011834;28;20080;-74
2024/03/25 06:42:03;;;;;;;23.35;3.50;;;5.40;99.90;;;;;;5011626;28;20121;-72
2024/03/25 06:44:28;;;;;;;23.88;4.03;;;5.30;99.90;;;;;;5011493;28;20056;-73
2024/03/25 06:46:55;;;;;;;18.58;3.83;;;5.30;99.90;;;;;;5011817;28;20026;-74
2024/03/25 06:49:21;;;;;;;15.30;3.60;;;5.40;99.90;;;;;;5009360;28;20424;-73
2024/03/25 06:51:47;;;;;;;19.13;3.67;;;5.40;99.90;;;;;;5011952;28;20101;-73
2024/03/25 06:54:12;;;;;;;25.77;4.32;;;5.40;99.90;;;;;;5010202;28;20022;-72
2024/03/25 06:56:38;;;;;;;20.10;3.83;;;5.50;99.90;;;;;;5011722;28;20034;-72
2024/03/25 06:59:03;;;;;;;22.58;3.90;;;5.50;99.90;;;;;;5012987;28;20294;-71
2024/03/25 07:01:29;;;;;;;21.40;4.07;;;5.50;99.90;;;;;;5013941;28;20038;-72
2024/03/25 07:03:55;;;;;;;19.02;3.70;;;5.60;99.90;;;;;;5013693;28;20109;-72
2024/03/25 07:06:20;;;;;;;22.60;3.80;;;5.60;99.90;;;;;;5015717;28;20027;-74
2024/03/25 07:08:47;;;;;;;19.95;3.53;;;5.60;99.90;;;;;;5014205;28;20061;-71
2024/03/25 07:11:13;;;;;;;19.30;3.50;;;5.70;99.90;;;;;;5014935;28;20054;-75
2024/03/25 07:13:39;;;;;;;18.05;3.47;;;5.70;99.90;;;;;;5015923;28;20032;-74
2024/03/25 07:16:05;;;;;;;24.10;3.45;;;5.70;99.90;;;;;;5014639;28;20053;-72
2024/03/25 07:18:30;;;;;;;19.35;3.42;;;5.70;99.90;;;;;;5015251;28;20032;-70
2024/03/25 07:20:56;;;;;;;20.35;3.17;;;5.80;99.90;;;;;;5013926;28;20037;-72
2024/03/25 07:23:21;;;;;;;21.48;3.55;;;5.80;99.90;;;;;;5015138;28;20057;-71
2024/03/25 07:25:47;;;;;;;22.40;3.80;;;5.90;99.90;;;;;;5016119;28;20025;-72
2024/03/25 07:28:12;;;;;;;22.73;3.85;;;6.00;99.90;;;;;;5016455;28;20030;-73
2024/03/25 07:30:38;;;;;;;20.02;3.50;;;6.00;99.90;;;;;;5014652;28;20054;-72
2024/03/25 07:33:04;;;;;;;18.83;3.65;;;5.90;99.90;;;;;;5014382;28;20061;-73
2024/03/25 07:35:30;;;;;;;20.38;3.00;;;5.90;99.90;;;;;;5014775;28;20026;-73
2024/03/25 07:37:55;;;;;;;21.08;3.33;;;6.00;99.90;;;;;;5012085;28;20045;-72
2024/03/25 07:40:22;;;;;;;17.13;3.58;;;6.00;99.90;;;;;;5014301;28;20036;-71
2024/03/25 07:42:48;;;;;;;21.63;4.05;;;6.10;99.90;;;;;;5012762;28;20038;-73
2024/03/25 07:45:21;;;;;;;13.98;3.67;;;6.20;99.90;;;;;;5012656;28;20390;-75
2024/03/25 07:47:47;;;;;;;25.33;4.38;;;6.40;99.90;;;;;;5011621;28;20038;-75
2024/03/25 07:50:13;;;;;;;33.80;4.22;;;6.50;99.90;;;;;;5014873;28;20081;-71
2024/03/25 07:52:40;;;;;;;38.63;4.35;;;6.60;99.90;;;;;;5016689;28;20034;-69
2024/03/25 07:55:09;;;;;;;24.55;4.05;;;6.70;99.90;;;;;;5013839;28;20042;-74
2024/03/25 07:57:35;;;;;;;16.67;3.17;;;6.80;99.90;;;;;;5014107;28;20073;-72
2024/03/25 08:00:01;;;;;;;22.08;3.00;;;6.90;99.90;;;;;;5015375;28;20029;-75
2024/03/25 08:02:26;;;;;;;19.05;2.78;;;6.80;99.90;;;;;;5015235;28;20110;-72
2024/03/25 08:04:52;;;;;;;12.82;2.55;;;6.80;99.90;;;;;;5013647;28;20038;-74
2024/03/25 08:07:17;;;;;;;17.73;3.08;;;6.80;99.90;;;;;;5014481;28;20085;-73
2024/03/25 08:09:43;;;;;;;17.30;3.00;;;6.80;99.90;;;;;;5013803;28;20053;-74
2024/03/25 08:12:09;;;;;;;18.15;3.67;;;6.80;99.90;;;;;;5013219;28;20023;-73
2024/03/25 08:14:34;;;;;;;23.42;3.35;;;6.90;99.90;;;;;;5014022;28;20030;-71
2024/03/25 08:17:00;;;;;;;17.92;3.00;;;6.90;99.90;;;;;;5014305;28;20026;-73
2024/03/25 08:19:25;;;;;;;20.48;3.05;;;6.90;99.90;;;;;;5013502;28;20125;-73
2024/03/25 08:21:51;;;;;;;25.13;3.58;;;7.00;99.90;;;;;;5012968;28;20038;-72
2024/03/25 08:24:17;;;;;;;15.38;2.90;;;7.00;99.90;;;;;;5014420;28;20038;-73
2024/03/25 08:26:42;;;;;;;16.75;3.53;;;7.10;99.90;;;;;;5013552;28;20025;-75
2024/03/25 08:29:08;;;;;;;24.58;4.60;;;7.30;99.90;;;;;;5014637;28;20026;-73
2024/03/25 08:31:33;;;;;;;86.97;12.00;;;7.30;99.90;;;;;;5014572;28;20029;-73
2024/03/25 08:33:59;;;;;;;17.48;4.07;;;7.20;99.90;;;;;;5013584;28;20033;-73
2024/03/25 08:36:24;;;;;;;18.23;3.90;;;7.20;99.90;;;;;;5012535;28;20022;-74
2024/03/25 08:38:50;;;;;;;15.80;3.10;;;7.50;99.90;;;;;;5036885;28;20073;-75
2024/03/25 08:41:16;;;;;;;22.00;3.30;;;7.70;99.90;;;;;;5012603;28;20038;-72
2024/03/25 08:43:41;;;;;;;18.08;3.08;;;8.00;99.90;;;;;;5013883;28;20031;-74
2024/03/25 08:46:07;;;;;;;21.92;3.42;;;8.30;99.90;;;;;;5013640;28;20030;-72
2024/03/25 08:48:33;;;;;;;17.70;2.63;;;8.60;99.90;;;;;;5013983;28;20022;-75
2024/03/25 08:50:58;;;;;;;12.93;2.50;;;9.00;99.90;;;;;;5014077;28;20030;-73
2024/03/25 08:53:24;;;;;;;18.70;3.42;;;9.30;99.90;;;;;;5013524;28;20031;-74
2024/03/25 08:55:49;;;;;;;20.63;3.13;;;9.50;99.90;;;;;;5013732;28;20440;-73
2024/03/25 08:58:15;;;;;;;14.05;2.45;;;9.60;99.90;;;;;;5015277;28;20060;-71
2024/03/25 09:00:42;;;;;;;12.65;2.75;;;9.50;99.90;;;;;;5012377;28;20030;-72
2024/03/25 09:03:08;;;;;;;12.98;2.15;;;9.50;99.90;;;;;;5013571;28;20057;-72
2024/03/25 09:05:34;;;;;;;15.45;2.28;;;9.20;99.90;;;;;;5013205;28;20026;-73
2024/03/25 09:08:00;;;;;;;20.73;2.67;;;9.10;99.90;;;;;;5012981;28;20014;-72
2024/03/25 09:13:10;;;;;;;13.82;2.20;;;9.00;99.90;;;;;;5013891;28;20049;-71
2024/03/25 09:15:36;;;;;;;14.63;2.75;;;8.90;99.90;;;;;;5011761;28;20037;-71
2024/03/25 09:18:01;;;;;;;19.05;2.60;;;8.80;99.90;;;;;;5012782;28;20080;-71
2024/03/25 09:20:27;;;;;;;10.43;2.45;;;8.60;99.90;;;;;;5012065;28;20030;-72
2024/03/25 09:22:52;;;;;;;15.80;3.33;;;8.40;99.90;;;;;;5012598;28;20044;-72
2024/03/25 09:25:18;;;;;;;15.65;2.42;;;8.40;99.90;;;;;;5012498;28;20042;-73
2024/03/25 09:27:51;;;;;;;12.00;2.15;;;8.30;99.90;;;;;;5013191;28;20026;-73
2024/03/25 09:30:19;;;;;;;17.17;2.17;;;8.30;99.90;;;;;;5012816;28;20034;-75
2024/03/25 09:32:44;;;;;;;14.73;2.10;;;8.10;99.90;;;;;;5011638;28;20033;-71
2024/03/25 09:35:11;;;;;;;14.15;2.33;;;8.10;99.90;;;;;;5011969;28;20026;-75
2024/03/25 09:37:37;;;;;;;11.10;2.15;;;8.00;99.90;;;;;;5013430;28;20049;-73
2024/03/25 09:40:04;;;;;;;10.68;2.42;;;8.00;99.90;;;;;;5009048;28;20034;-75
2024/03/25 09:42:47;;;;;;;22.40;2.67;;;8.00;99.90;;;;;;5010533;28;20042;-73
2024/03/25 09:45:16;;;;;;;11.50;1.90;;;8.00;99.90;;;;;;5012989;28;20530;-72
2024/03/25 09:47:46;;;;;;;19.42;2.70;;;7.90;99.90;;;;;;5018266;28;20081;-74
2024/03/25 09:50:13;;;;;;;16.58;2.58;;;8.00;99.90;;;;;;5014507;28;20037;-74
2024/03/25 09:52:40;;;;;;;16.80;2.60;;;8.00;99.90;;;;;;5011156;28;20034;-74
2024/03/25 09:55:06;;;;;;;15.50;2.30;;;8.00;99.90;;;;;;5011777;28;20029;-73
2024/03/25 09:57:32;;;;;;;11.75;1.98;;;8.00;99.90;;;;;;5012309;28;20026;-76
2024/03/25 09:59:57;;;;;;;17.65;2.83;;;8.10;99.90;;;;;;5011655;28;20085;-72
2024/03/25 10:02:26;;;;;;;13.18;2.28;;;8.20;99.90;;;;;;5011533;28;20386;-73
2024/03/25 10:04:52;;;;;;;11.65;2.60;;;8.30;99.90;;;;;;5010904;28;20057;-75
2024/03/25 10:07:25;;;;;;;15.90;2.13;;;8.40;99.90;;;;;;5012146;28;20030;-74
2024/03/25 10:09:51;;;;;;;17.40;1.98;;;8.50;99.90;;;;;;5010559;28;20143;-73
2024/03/25 10:12:17;;;;;;;8.27;2.08;;;8.60;99.90;;;;;;5010572;28;20053;-76
2024/03/25 10:14:43;;;;;;;14.00;2.05;;;8.60;99.90;;;;;;5011651;28;20048;-75
2024/03/25 10:17:09;;;;;;;13.23;2.78;;;8.60;99.90;;;;;;5011970;28;20145;-72
2024/03/25 10:19:37;;;;;;;11.98;2.00;;;8.60;99.90;;;;;;5009853;28;20038;-73
2024/03/25 10:22:07;;;;;;;19.33;2.58;;;8.60;99.90;;;;;;5011176;28;20049;-73
2024/03/25 10:24:45;;;;;;;11.60;1.95;;;8.60;99.90;;;;;;5012194;28;20046;-74
2024/03/25 10:27:21;;;;;;;12.00;1.80;;;8.60;99.90;;;;;;5011950;28;20406;-74
2024/03/25 10:29:57;;;;;;;12.23;2.08;;;8.50;99.90;;;;;;5012352;28;20465;-74
2024/03/25 10:32:28;;;;;;;13.32;1.92;;;8.40;99.90;;;;;;5007905;28;20030;-74
2024/03/25 10:34:54;;;;;;;21.83;2.92;;;8.30;99.90;;;;;;5012553;28;20026;-74
2024/03/25 10:37:22;;;;;;;13.07;2.53;;;8.30;99.90;;;;;;5009866;28;20018;-75
2024/03/25 10:39:50;;;;;;;13.90;2.10;;;8.30;99.90;;;;;;5012134;28;20026;-74
2024/03/25 10:42:19;;;;;;;12.52;2.42;;;8.50;99.90;;;;;;5017647;28;20033;-75
2024/03/25 10:44:45;;;;;;;16.95;2.42;;;8.60;99.90;;;;;;5013324;28;20030;-74
2024/03/25 10:47:19;;;;;;;10.27;1.70;;;8.70;99.90;;;;;;5011807;28;20038;-74
2024/03/25 10:49:56;;;;;;;11.02;2.50;;;8.80;99.90;;;;;;5009364;28;20097;-74
2024/03/25 10:52:22;;;;;;;11.98;2.22;;;8.90;99.90;;;;;;5015087;28;20034;-73
2024/03/25 10:54:49;;;;;;;9.93;1.60;;;9.00;99.90;;;;;;5012723;28;20038;-77
2024/03/25 10:57:16;;;;;;;11.80;2.00;;;9.30;99.90;;;;;;5011362;28;20039;-73
2024/03/25 10:59:43;;;;;;;13.48;1.98;;;9.30;99.90;;;;;;5035099;28;20018;-76
2024/03/25 11:02:09;;;;;;;14.15;2.25;;;9.50;99.90;;;;;;5012010;28;20058;-75
2024/03/25 11:04:36;;;;;;;11.82;1.98;;;9.40;99.90;;;;;;5013468;28;20041;-74
2024/03/25 11:07:15;;;;;;;10.30;1.92;;;9.30;99.90;;;;;;5010596;28;20041;-76
2024/03/25 11:09:42;;;;;;;12.68;2.47;;;9.20;99.90;;;;;;5012202;28;20037;-74
2024/03/25 11:12:11;;;;;;;13.68;2.03;;;9.00;99.90;;;;;;5014657;28;20367;-75
2024/03/25 11:14:37;;;;;;;10.10;1.80;;;8.80;99.90;;;;;;5012147;28;20026;-74
2024/03/25 11:17:03;;;;;;;11.23;2.03;;;8.80;99.90;;;;;;5011014;28;20868;-74
2024/03/25 11:19:30;;;;;;;9.48;1.55;;;8.80;99.90;;;;;;5013326;28;20033;-75
2024/03/25 11:22:08;;;;;;;9.77;2.30;;;8.80;99.90;;;;;;5010980;28;20131;-75
2024/03/25 11:24:38;;;;;;;12.60;2.17;;;8.90;99.90;;;;;;5012686;28;20034;-74
2024/03/25 11:27:07;;;;;;;8.75;1.95;;;9.00;99.90;;;;;;5027204;28;20034;-75
2024/03/25 11:29:33;;;;;;;12.13;1.77;;;9.00;99.90;;;;;;5012321;28;20022;-75
2024/03/25 11:32:03;;;;;;;12.80;1.80;;;9.10;99.90;;;;;;5035049;28;20037;-75
2024/03/25 11:34:29;;;;;;;11.25;2.08;;;9.20;99.90;;;;;;5010976;28;20030;-75
2024/03/25 11:36:57;;;;;;;10.93;1.92;;;9.30;99.90;;;;;;5011494;28;20038;-74
2024/03/25 11:39:24;;;;;;;10.48;1.83;;;9.50;99.90;;;;;;5010381;28;20030;-74
2024/03/25 11:41:49;;;;;;;16.00;2.38;;;9.90;99.90;;;;;;5016472;28;20067;-72
2024/03/25 11:44:20;;;;;;;11.13;2.22;;;10.30;99.90;;;;;;5014640;28;20034;-73
2024/03/25 11:46:45;;;;;;;8.75;1.95;;;10.40;99.90;;;;;;5017237;28;20474;-73
2024/03/25 11:49:17;;;;;;;10.43;1.70;;;10.70;99.90;;;;;;5016076;28;20098;-74
2024/03/25 11:51:46;;;;;;;11.32;2.15;;;10.60;99.90;;;;;;5014303;28;20065;-72
2024/03/25 11:54:12;;;;;;;13.20;2.58;;;10.50;99.90;;;;;;5014124;28;20466;-73
2024/03/25 11:56:39;;;;;;;10.32;1.52;;;10.60;99.90;;;;;;5016449;28;20380;-74
2024/03/25 11:59:05;;;;;;;9.15;1.92;;;10.30;99.90;;;;;;5031903;28;20150;-72
2024/03/25 12:01:31;;;;;;;9.77;1.90;;;10.10;99.90;;;;;;5015191;28;20063;-71
2024/03/25 12:03:57;;;;;;;10.75;1.73;;;9.90;99.90;;;;;;5013970;28;20152;-73
2024/03/25 12:06:22;;;;;;;9.30;2.40;;;9.80;99.90;;;;;;5019022;28;20064;-72
2024/03/25 12:11:33;;;;;;;10.98;1.75;;;9.40;99.90;;;;;;5015689;28;20044;-72
2024/03/25 12:14:00;;;;;;;7.53;1.50;;;9.40;99.90;;;;;;5014157;28;20029;-73
2024/03/25 12:16:26;;;;;;;10.63;1.80;;;9.30;99.90;;;;;;5012802;28;20482;-74
2024/03/25 12:18:52;;;;;;;6.82;1.77;;;9.40;99.90;;;;;;5012908;28;20045;-74
2024/03/25 12:21:19;;;;;;;10.73;2.28;;;9.50;99.90;;;;;;5014008;28;20049;-75
2024/03/25 12:23:47;;;;;;;10.23;1.80;;;9.50;99.90;;;;;;5012714;28;20449;-73
2024/03/25 12:26:16;;;;;;;7.38;1.70;;;9.80;99.90;;;;;;5012306;28;20022;-73
2024/03/25 12:28:42;;;;;;;7.38;1.98;;;10.10;99.90;;;;;;5014621;28;20086;-72
2024/03/25 12:31:08;;;;;;;11.68;2.45;;;10.50;99.90;;;;;;5012521;28;20657;-73
2024/03/25 12:33:41;;;;;;;7.50;1.63;;;10.90;99.90;;;;;;5014017;28;20192;-73
2024/03/25 12:36:07;;;;;;;6.55;1.60;;;10.90;99.90;;;;;;5013954;28;20046;-74
2024/03/25 12:38:32;;;;;;;10.10;1.48;;;10.80;99.90;;;;;;5012045;28;20041;-73
2024/03/25 12:41:06;;;;;;;6.72;1.70;;;11.30;99.90;;;;;;5013816;28;20027;-73
2024/03/25 12:43:37;;;;;;;5.93;1.70;;;12.10;99.90;;;;;;5011502;28;20034;-74
2024/03/25 12:46:05;;;;;;;11.80;1.83;;;12.20;99.90;;;;;;5029442;28;20050;-73
2024/03/25 12:48:31;;;;;;;10.35;1.98;;;12.00;99.90;;;;;;5014002;28;20018;-75
2024/03/25 12:50:57;;;;;;;5.90;1.50;;;11.70;99.90;;;;;;5013001;28;20030;-74
2024/03/25 12:53:22;;;;;;;7.00;1.40;;;11.40;99.90;;;;;;5012246;28;20029;-73
2024/03/25 12:55:48;;;;;;;5.57;1.50;;;10.80;99.90;;;;;;5012343;28;20040;-74